Terminal Aerodrome Forecast
Issued by NWS

Home | Current Version | Previous Version | Text Only | Print | Product List | Glossary On
Versions: 1 2 3 4 5 6 7 8 9 10 11 12 13 14
978
FTUS45 KRIW 291120
TAFWRL
TAF
KWRL 291120Z 2912/3012 18006KT P6SM VCFG FEW003
     FM291400 VRB05KT P6SM FEW090
     FM292000 VRB05KT P6SM SCT090
     FM300300 VRB05KT P6SM BKN090
     FM301000 VRB05KT P6SM SCT100=

USA.gov is the U.S. government's official web portal to all federal, state and local government web resources and services.